Time;durP1;ratioP1;P1;durP2;ratioP2;P2;SDS_P1;SDS_P2;PMS_P1;PMS_P2;Temp;Humidity;BMP_temperature;BMP_pressure;BME280_temperature;BME280_humidity;BME280_pressure;Samples;Min_cycle;Max_cycle;Signal;HPM_P1;HPM_P2
2022/10/05 00:00:56;;;;;;;8.27;7.57;;;10.80;99.90;;;;;;5006620;28;20439;-69
2022/10/05 00:03:24;;;;;;;8.27;7.40;;;10.80;99.90;;;;;;5015444;28;20975;-69
2022/10/05 00:05:50;;;;;;;8.43;6.97;;;10.80;99.90;;;;;;5014830;28;20538;-69
2022/10/05 00:08:24;;;;;;;9.47;8.00;;;10.70;99.90;;;;;;5012735;28;20532;-68
2022/10/05 00:10:50;;;;;;;8.20;7.00;;;10.70;99.90;;;;;;5009427;28;20171;-68
2022/10/05 00:13:26;;;;;;;10.90;8.17;;;10.70;99.90;;;;;;5010118;28;20441;-68
2022/10/05 00:16:19;;;;;;;9.10;7.37;;;10.70;99.90;;;;;;5008746;28;20457;-68
2022/10/05 00:18:51;;;;;;;8.10;7.37;;;10.60;99.90;;;;;;5005509;28;20481;-69
2022/10/05 00:21:20;;;;;;;7.93;7.30;;;10.70;99.90;;;;;;5015242;28;20436;-68
2022/10/05 00:23:47;;;;;;;9.67;7.80;;;10.60;99.90;;;;;;5008995;28;20446;-68
2022/10/05 00:26:17;;;;;;;8.27;7.43;;;10.70;99.90;;;;;;5016996;28;20991;-68
2022/10/05 00:28:43;;;;;;;8.40;7.00;;;10.70;99.90;;;;;;5011183;28;20533;-69
2022/10/05 00:31:17;;;;;;;8.23;6.23;;;10.50;99.90;;;;;;5004156;28;20532;-69
2022/10/05 00:33:43;;;;;;;8.97;8.07;;;10.50;99.90;;;;;;5007567;28;20272;-68
2022/10/05 00:36:09;;;;;;;8.90;7.80;;;10.40;99.90;;;;;;5010401;28;20548;-69
2022/10/05 00:38:34;;;;;;;7.30;6.60;;;10.30;99.90;;;;;;5011982;28;20187;-69
2022/10/05 00:41:10;;;;;;;8.50;7.37;;;10.40;99.90;;;;;;5012702;28;20179;-69
2022/10/05 00:43:55;;;;;;;7.97;7.17;;;10.40;99.90;;;;;;5012126;28;20677;-68
2022/10/05 00:46:35;;;;;;;18.00;9.33;;;10.40;99.90;;;;;;5003824;28;20975;-69
2022/10/05 00:49:19;;;;;;;11.60;9.53;;;10.30;99.90;;;;;;5008879;28;21120;-68
2022/10/05 00:51:57;;;;;;;8.90;7.83;;;10.30;99.90;;;;;;5008668;28;20492;-68
2022/10/05 00:54:37;;;;;;;8.43;7.50;;;10.30;99.90;;;;;;5010161;28;20564;-69
2022/10/05 00:57:14;;;;;;;10.80;7.90;;;10.20;99.90;;;;;;5009004;28;20969;-68
2022/10/05 00:59:55;;;;;;;10.03;8.30;;;10.20;99.90;;;;;;5003216;28;20445;-69
2022/10/05 01:02:46;;;;;;;8.70;7.80;;;10.10;99.90;;;;;;5009646;28;20437;-68
2022/10/05 01:05:20;;;;;;;8.60;7.80;;;10.00;99.90;;;;;;5010809;28;20837;-69
2022/10/05 01:08:23;;;;;;;10.00;8.53;;;10.00;99.90;;;;;;5006665;28;20557;-68
2022/10/05 01:11:10;;;;;;;8.60;7.70;;;10.00;99.90;;;;;;5010072;28;20430;-69
2022/10/05 01:14:00;;;;;;;8.00;7.20;;;10.00;99.90;;;;;;5008452;28;20529;-68
2022/10/05 01:16:47;;;;;;;10.73;8.70;;;10.00;99.90;;;;;;5005458;28;20955;-69
2022/10/05 01:19:47;;;;;;;10.70;8.53;;;10.00;99.90;;;;;;5009043;28;20462;-68
2022/10/05 01:22:54;;;;;;;9.43;8.53;;;10.00;99.90;;;;;;5011056;28;20580;-68
2022/10/05 01:25:41;;;;;;;11.20;8.13;;;10.00;99.90;;;;;;4989124;28;20473;-68
2022/10/05 01:28:14;;;;;;;9.67;8.67;;;10.00;99.90;;;;;;5008938;28;20513;-68
2022/10/05 01:31:06;;;;;;;11.80;8.77;;;10.00;99.90;;;;;;5008691;28;20446;-69
2022/10/05 01:33:39;;;;;;;10.23;9.20;;;9.90;99.90;;;;;;5006842;28;21189;-69
2022/10/05 01:36:36;;;;;;;9.53;8.60;;;9.80;99.90;;;;;;5008376;28;20461;-68
2022/10/05 01:39:35;;;;;;;17.40;9.23;;;9.80;99.90;;;;;;5009846;28;20444;-68
2022/10/05 01:42:24;;;;;;;11.37;9.83;;;9.80;99.90;;;;;;5007959;28;20446;-69
2022/10/05 01:45:14;;;;;;;14.23;9.50;;;9.80;99.90;;;;;;5002153;28;20469;-68
2022/10/05 01:47:47;;;;;;;11.13;9.93;;;9.80;99.90;;;;;;5009059;28;20835;-68
2022/10/05 01:50:38;;;;;;;11.53;10.50;;;9.80;99.90;;;;;;5010727;28;20441;-68
2022/10/05 01:53:11;;;;;;;10.80;9.40;;;9.80;99.90;;;;;;5009957;28;20454;-68
2022/10/05 01:56:06;;;;;;;11.40;9.90;;;9.80;99.90;;;;;;5007543;28;20513;-68
2022/10/05 01:59:10;;;;;;;12.13;10.73;;;9.80;99.90;;;;;;5007572;28;20987;-69
2022/10/05 02:01:48;;;;;;;13.27;10.97;;;9.70;99.90;;;;;;5008767;28;20471;-68
2022/10/05 02:04:30;;;;;;;14.80;9.50;;;9.80;99.90;;;;;;5001456;28;20481;-68
2022/10/05 02:06:56;;;;;;;14.43;10.20;;;9.70;99.90;;;;;;5007866;28;20438;-69
2022/10/05 02:09:30;;;;;;;11.77;9.20;;;9.70;99.90;;;;;;5009059;28;20448;-68
2022/10/05 02:12:10;;;;;;;14.57;10.47;;;9.70;99.90;;;;;;5007160;28;21491;-68
2022/10/05 02:14:42;;;;;;;13.70;10.33;;;9.70;99.90;;;;;;5009731;28;20564;-68
2022/10/05 02:17:16;;;;;;;13.83;11.50;;;9.70;99.90;;;;;;5002180;28;20492;-68
2022/10/05 02:19:47;;;;;;;12.40;10.83;;;9.70;99.90;;;;;;5005364;28;20445;-68
2022/10/05 02:22:16;;;;;;;12.63;11.30;;;9.70;99.90;;;;;;5015127;28;20848;-68
2022/10/05 02:25:06;;;;;;;14.73;11.73;;;9.60;99.90;;;;;;5005615;28;20476;-68
2022/10/05 02:27:35;;;;;;;11.10;10.10;;;9.70;99.90;;;;;;5006411;28;20839;-68
2022/10/05 02:30:07;;;;;;;11.17;10.10;;;9.70;99.90;;;;;;5006726;28;20438;-68
2022/10/05 02:32:43;;;;;;;15.03;10.87;;;9.70;99.90;;;;;;5009315;28;20477;-68
2022/10/05 02:35:18;;;;;;;11.80;10.50;;;9.70;99.90;;;;;;5007817;28;20461;-68
2022/10/05 02:38:04;;;;;;;13.13;10.90;;;9.60;99.90;;;;;;5014729;28;20441;-69
2022/10/05 02:41:26;;;;;;;13.90;12.40;;;9.60;99.90;;;;;;5005415;28;20503;-68
2022/10/05 02:44:19;;;;;;;14.93;11.83;;;9.60;99.90;;;;;;4946006;29;20440;-68
2022/10/05 02:46:49;;;;;;;13.53;10.70;;;9.60;99.90;;;;;;4947924;29;20455;-68
2022/10/05 02:49:52;;;;;;;11.27;10.17;;;9.60;99.90;;;;;;4997857;28;20450;-68
2022/10/05 02:52:43;;;;;;;13.13;11.67;;;9.60;99.90;;;;;;5017190;28;20433;-68
2022/10/05 02:55:22;;;;;;;13.93;12.53;;;9.60;99.90;;;;;;5002082;28;20480;-68
2022/10/05 02:57:56;;;;;;;15.47;11.70;;;9.60;99.90;;;;;;5006898;28;20468;-68
2022/10/05 03:00:24;;;;;;;12.27;11.07;;;9.60;99.90;;;;;;5007886;28;20456;-68
2022/10/05 03:03:16;;;;;;;12.87;11.60;;;9.60;99.90;;;;;;5008740;28;20533;-69
2022/10/05 03:05:59;;;;;;;10.77;9.77;;;9.50;99.90;;;;;;5007016;28;20476;-68
2022/10/05 03:08:33;;;;;;;12.97;10.57;;;9.50;99.90;;;;;;5006270;28;20445;-68
2022/10/05 03:11:24;;;;;;;11.37;10.20;;;9.50;99.90;;;;;;5011463;28;21179;-68
2022/10/05 03:14:20;;;;;;;12.80;11.50;;;9.50;99.90;;;;;;5006606;28;20842;-68
2022/10/05 03:17:08;;;;;;;11.50;9.83;;;9.50;99.90;;;;;;5006738;28;21025;-68
2022/10/05 03:19:50;;;;;;;11.13;10.00;;;9.40;99.90;;;;;;5006863;28;20441;-68
2022/10/05 03:22:41;;;;;;;10.87;9.50;;;9.50;99.90;;;;;;5006820;28;20438;-68
2022/10/05 03:25:44;;;;;;;13.37;10.90;;;9.50;99.90;;;;;;5008143;28;20575;-68
2022/10/05 03:28:29;;;;;;;13.00;11.60;;;9.40;99.90;;;;;;5003743;28;20445;-68
2022/10/05 03:31:08;;;;;;;16.03;14.33;;;9.50;99.90;;;;;;5009922;28;20437;-68
2022/10/05 03:33:46;;;;;;;15.70;11.67;;;9.50;99.90;;;;;;5007673;28;20497;-68
2022/10/05 03:36:25;;;;;;;14.60;11.60;;;9.50;99.90;;;;;;5009113;28;20522;-68
2022/10/05 03:39:12;;;;;;;12.60;10.20;;;9.50;99.90;;;;;;5008773;28;20448;-68
2022/10/05 03:41:44;;;;;;;12.13;10.83;;;9.50;99.90;;;;;;5009151;28;20448;-68
2022/10/05 03:44:30;;;;;;;12.40;11.17;;;9.50;99.90;;;;;;5007938;28;20454;-68
2022/10/05 03:47:44;;;;;;;13.40;11.47;;;9.50;99.90;;;;;;5009128;28;20962;-68
2022/10/05 03:50:22;;;;;;;14.53;12.70;;;9.50;99.90;;;;;;4980424;28;20454;-68
2022/10/05 03:52:55;;;;;;;13.03;11.73;;;9.50;99.90;;;;;;5010402;28;20593;-68
2022/10/05 03:55:37;;;;;;;13.20;11.80;;;9.40;99.90;;;;;;5008263;28;20520;-68
2022/10/05 03:58:17;;;;;;;14.80;12.77;;;9.40;99.90;;;;;;5009503;28;20452;-69
2022/10/05 04:00:46;;;;;;;16.63;12.13;;;9.30;99.90;;;;;;5014086;28;20495;-68
2022/10/05 04:03:20;;;;;;;13.80;12.40;;;9.30;99.90;;;;;;5014773;28;20531;-68
2022/10/05 04:05:56;;;;;;;15.33;12.80;;;9.30;99.90;;;;;;5008842;28;20473;-68
2022/10/05 04:08:38;;;;;;;15.53;12.30;;;9.30;99.90;;;;;;5010249;28;21010;-68
2022/10/05 04:11:14;;;;;;;14.27;12.97;;;9.30;99.90;;;;;;5012347;28;20445;-68
2022/10/05 04:13:56;;;;;;;13.00;11.30;;;9.30;99.90;;;;;;5010652;28;20464;-69
2022/10/05 04:16:26;;;;;;;13.37;11.97;;;9.30;99.90;;;;;;5012057;28;20461;-68
2022/10/05 04:19:15;;;;;;;11.90;10.70;;;9.30;99.90;;;;;;5010256;28;20437;-68
2022/10/05 04:22:02;;;;;;;13.33;11.27;;;9.20;99.90;;;;;;5008796;28;20460;-69
2022/10/05 04:24:54;;;;;;;14.87;12.20;;;9.20;99.90;;;;;;5004238;28;20472;-68
2022/10/05 04:27:32;;;;;;;18.80;11.80;;;9.30;99.90;;;;;;5009250;28;20449;-67
2022/10/05 04:30:18;;;;;;;13.10;11.70;;;9.20;99.90;;;;;;5009279;28;20460;-69
2022/10/05 04:32:49;;;;;;;13.20;11.30;;;9.20;99.90;;;;;;5009543;28;20434;-68
2022/10/05 04:35:27;;;;;;;16.50;12.97;;;9.20;99.90;;;;;;5008786;28;20461;-68
2022/10/05 04:38:17;;;;;;;12.67;11.37;;;9.20;99.90;;;;;;5010564;28;20445;-68
2022/10/05 04:41:00;;;;;;;13.67;12.17;;;9.10;99.90;;;;;;5010408;28;20453;-68
2022/10/05 04:43:56;;;;;;;13.43;11.63;;;9.10;99.90;;;;;;5009863;28;20449;-68
2022/10/05 04:46:41;;;;;;;13.50;12.10;;;9.10;99.90;;;;;;5009846;28;20472;-68
2022/10/05 04:49:18;;;;;;;14.80;12.47;;;9.10;99.90;;;;;;5015732;28;20433;-68
2022/10/05 04:51:55;;;;;;;14.87;13.27;;;9.10;99.90;;;;;;5013342;28;20446;-68
2022/10/05 04:54:33;;;;;;;15.50;12.30;;;9.10;99.90;;;;;;5018611;28;20465;-68
2022/10/05 04:57:12;;;;;;;14.27;12.87;;;9.00;99.90;;;;;;5016041;28;20440;-67
2022/10/05 05:00:03;;;;;;;12.37;11.07;;;9.00;99.90;;;;;;5017740;28;20437;-68
2022/10/05 05:03:02;;;;;;;13.40;12.00;;;9.00;99.90;;;;;;5009830;28;20449;-67
2022/10/05 05:05:39;;;;;;;13.13;11.83;;;8.90;99.90;;;;;;5013459;28;20497;-68
2022/10/05 05:08:47;;;;;;;13.80;12.40;;;8.90;99.90;;;;;;5015554;28;20520;-69
2022/10/05 05:11:16;;;;;;;14.80;12.70;;;8.90;99.90;;;;;;5009990;28;20447;-68
2022/10/05 05:14:14;;;;;;;12.63;11.33;;;8.90;99.90;;;;;;5020092;28;20854;-68
2022/10/05 05:16:49;;;;;;;14.40;12.53;;;8.90;99.90;;;;;;5020069;28;20441;-68
2022/10/05 05:19:25;;;;;;;15.17;13.70;;;8.80;99.90;;;;;;5020405;28;20448;-67
2022/10/05 05:22:10;;;;;;;14.13;12.63;;;8.80;99.90;;;;;;5012814;28;20775;-68
2022/10/05 05:25:05;;;;;;;16.37;13.57;;;8.80;99.90;;;;;;5016335;28;20469;-68
2022/10/05 05:27:39;;;;;;;13.93;12.40;;;8.80;99.90;;;;;;5015628;28;20441;-68
2022/10/05 05:30:29;;;;;;;13.90;12.00;;;8.80;99.90;;;;;;5019727;28;20446;-68
2022/10/05 05:33:30;;;;;;;15.13;13.30;;;8.80;99.90;;;;;;5019830;28;20486;-68
2022/10/05 05:36:04;;;;;;;13.20;11.80;;;8.90;99.90;;;;;;5020228;28;20466;-68
2022/10/05 05:38:35;;;;;;;18.73;14.07;;;8.80;99.90;;;;;;5021214;28;20444;-68
2022/10/05 05:42:00;;;;;;;17.67;14.53;;;8.80;99.90;;;;;;5015369;28;20451;-69
2022/10/05 05:44:45;;;;;;;18.30;12.27;;;8.80;99.90;;;;;;4991691;28;20878;-68
2022/10/05 05:47:26;;;;;;;16.47;14.87;;;8.80;99.90;;;;;;4984092;28;20454;-68
2022/10/05 05:50:21;;;;;;;14.63;13.03;;;8.90;99.90;;;;;;5003229;28;20508;-68
2022/10/05 05:53:05;;;;;;;19.50;14.23;;;8.90;99.90;;;;;;5019244;28;20509;-68
2022/10/05 05:55:39;;;;;;;16.40;14.23;;;8.90;99.90;;;;;;5020046;28;20512;-67
2022/10/05 05:58:10;;;;;;;15.47;13.93;;;9.00;99.90;;;;;;5020178;28;20438;-69
2022/10/05 06:00:48;;;;;;;18.03;14.67;;;9.00;99.90;;;;;;5015913;28;20495;-68
2022/10/05 06:03:38;;;;;;;14.30;12.80;;;9.00;99.90;;;;;;5015723;28;20445;-68
2022/10/05 06:06:09;;;;;;;21.00;14.67;;;9.10;99.90;;;;;;5015092;28;20476;-68
2022/10/05 06:08:45;;;;;;;18.70;13.33;;;9.20;99.90;;;;;;5019341;28;20438;-68
2022/10/05 06:11:27;;;;;;;16.10;14.23;;;9.30;99.90;;;;;;5014068;28;20444;-67
2022/10/05 06:13:58;;;;;;;18.20;13.80;;;9.40;99.90;;;;;;5017973;28;20445;-68
2022/10/05 06:16:34;;;;;;;21.40;13.10;;;9.60;99.90;;;;;;5022301;28;20449;-68
2022/10/05 06:19:12;;;;;;;16.57;13.33;;;9.80;99.90;;;;;;5011133;28;20452;-67
2022/10/05 06:21:41;;;;;;;16.30;13.67;;;9.90;99.90;;;;;;5018748;28;20926;-68
2022/10/05 06:24:19;;;;;;;15.00;13.40;;;10.00;99.90;;;;;;5011487;28;21011;-67
2022/10/05 06:27:11;;;;;;;15.60;14.13;;;10.20;99.90;;;;;;5009313;28;20845;-68
2022/10/05 06:30:02;;;;;;;16.07;13.20;;;10.40;99.90;;;;;;4995764;28;21791;-68
2022/10/05 06:32:49;;;;;;;13.27;12.00;;;10.60;99.90;;;;;;4978328;28;20444;-68
2022/10/05 06:35:25;;;;;;;16.40;14.13;;;10.80;99.90;;;;;;5003054;28;20461;-67
2022/10/05 06:37:57;;;;;;;14.73;13.30;;;10.80;99.90;;;;;;5007832;28;20448;-68
2022/10/05 06:40:39;;;;;;;17.33;15.57;;;11.00;99.90;;;;;;5004740;28;20507;-68
2022/10/05 06:43:13;;;;;;;14.67;13.27;;;11.30;99.90;;;;;;5005856;28;20473;-69
2022/10/05 06:46:12;;;;;;;14.53;13.13;;;11.60;99.90;;;;;;5007628;28;20466;-68
2022/10/05 06:49:07;;;;;;;15.70;14.20;;;11.90;99.90;;;;;;5014080;28;20480;-69
2022/10/05 06:51:44;;;;;;;15.50;14.00;;;12.10;99.90;;;;;;5028527;28;20533;-67
2022/10/05 06:54:40;;;;;;;16.40;14.70;;;12.20;99.90;;;;;;5014984;28;20856;-68
2022/10/05 06:57:45;;;;;;;18.60;13.20;;;12.50;99.90;;;;;;5009418;28;20440;-70
2022/10/05 07:00:23;;;;;;;13.00;11.70;;;12.70;99.90;;;;;;5007485;28;20514;-68
2022/10/05 07:03:03;;;;;;;12.77;11.57;;;12.80;99.90;;;;;;5013432;28;20524;-68
2022/10/05 07:05:43;;;;;;;14.40;12.27;;;13.10;99.90;;;;;;5009812;28;20477;-67
2022/10/05 07:08:23;;;;;;;16.87;11.97;;;13.30;99.90;;;;;;5009342;28;20557;-68
2022/10/05 07:11:02;;;;;;;16.67;15.00;;;13.40;99.90;;;;;;5004183;28;20429;-68
2022/10/05 07:13:46;;;;;;;12.63;10.97;;;13.60;99.90;;;;;;5005834;28;20483;-68
2022/10/05 07:16:44;;;;;;;12.47;11.13;;;13.80;99.90;;;;;;5004284;28;20488;-69
2022/10/05 07:19:15;;;;;;;18.70;13.00;;;14.00;99.90;;;;;;5002541;28;20871;-69
2022/10/05 07:22:03;;;;;;;13.53;10.90;;;14.20;99.90;;;;;;5001869;28;20437;-69
2022/10/05 07:24:45;;;;;;;18.97;12.37;;;14.30;99.90;;;;;;5006943;28;20544;-68
2022/10/05 07:27:23;;;;;;;12.20;11.00;;;14.40;99.90;;;;;;5015214;28;20445;-67
2022/10/05 07:30:03;;;;;;;11.23;10.33;;;14.60;99.90;;;;;;5006580;28;20441;-68
2022/10/05 07:33:08;;;;;;;9.73;8.80;;;14.80;99.90;;;;;;5008364;28;20445;-67
2022/10/05 07:38:38;;;;;;;9.10;8.17;;;15.10;99.90;;;;;;5002735;28;20442;-68
2022/10/05 07:41:09;;;;;;;10.53;9.50;;;15.20;99.90;;;;;;5009147;28;20785;-68
2022/10/05 07:43:57;;;;;;;12.23;11.03;;;15.40;99.90;;;;;;5014335;28;20445;-67
2022/10/05 07:46:46;;;;;;;10.57;9.57;;;15.60;99.90;;;;;;5013088;28;20477;-67
2022/10/05 07:49:35;;;;;;;12.13;9.90;;;15.40;99.90;;;;;;5010957;28;20880;-69
2022/10/05 07:52:05;;;;;;;14.40;10.40;;;15.60;99.90;;;;;;5009048;28;20456;-67
2022/10/05 07:55:15;;;;;;;11.97;10.83;;;15.90;99.90;;;;;;5013242;28;20457;-68
2022/10/05 07:58:11;;;;;;;10.70;9.70;;;16.20;99.90;;;;;;4952394;29;20836;-69
2022/10/05 08:00:52;;;;;;;12.50;9.40;;;16.40;99.90;;;;;;5005129;28;20443;-67
2022/10/05 08:03:55;;;;;;;11.60;10.07;;;16.70;99.90;;;;;;5006329;28;20955;-68
2022/10/05 08:06:36;;;;;;;11.73;10.00;;;16.70;99.90;;;;;;4981384;28;20485;-69
2022/10/05 08:09:25;;;;;;;11.50;9.73;;;16.80;99.90;;;;;;5009210;28;20445;-68
2022/10/05 08:12:02;;;;;;;10.33;9.23;;;17.00;99.90;;;;;;4992675;28;20480;-68
2022/10/05 08:14:37;;;;;;;11.47;10.37;;;17.30;99.90;;;;;;5010389;28;20564;-67
2022/10/05 08:17:10;;;;;;;9.20;8.30;;;17.70;99.90;;;;;;5013860;28;20449;-67
2022/10/05 08:19:45;;;;;;;11.07;10.17;;;18.10;99.90;;;;;;5007714;28;20457;-68
2022/10/05 08:22:18;;;;;;;10.03;9.10;;;18.60;99.90;;;;;;5007340;28;20441;-67
2022/10/05 08:25:04;;;;;;;11.60;10.33;;;19.10;99.90;;;;;;5011586;28;20923;-67
2022/10/05 08:27:51;;;;;;;9.80;8.70;;;19.80;99.90;;;;;;5010592;28;20861;-68
2022/10/05 08:30:17;;;;;;;13.90;9.73;;;20.50;99.90;;;;;;5008453;28;20438;-69
2022/10/05 08:32:49;;;;;;;9.97;8.97;;;20.90;99.90;;;;;;5011929;28;20445;-68
2022/10/05 08:35:36;;;;;;;10.20;9.20;;;21.30;99.90;;;;;;5011785;28;21006;-68
2022/10/05 08:38:10;;;;;;;9.23;8.33;;;21.60;99.90;;;;;;5011382;28;20476;-69
2022/10/05 08:40:55;;;;;;;9.97;9.17;;;22.30;99.90;;;;;;5009573;28;20577;-69
2022/10/05 08:43:58;;;;;;;13.70;10.13;;;22.60;99.90;;;;;;5009441;28;20449;-73
2022/10/05 08:46:53;;;;;;;9.67;8.10;;;23.20;99.90;;;;;;5012736;28;20465;-69
2022/10/05 08:50:00;;;;;;;10.00;8.33;;;23.70;99.90;;;;;;4997255;28;20489;-70
2022/10/05 08:52:30;;;;;;;8.03;7.43;;;24.50;99.90;;;;;;5001731;28;20736;-69
2022/10/05 08:55:17;;;;;;;7.80;7.07;;;25.10;99.80;;;;;;5011204;28;20479;-70
2022/10/05 08:57:52;;;;;;;7.90;7.20;;;25.50;98.20;;;;;;5008888;28;20453;-69
2022/10/05 09:00:22;;;;;;;7.87;6.97;;;26.00;96.30;;;;;;5000661;28;20974;-70
2022/10/05 09:03:14;;;;;;;7.90;7.20;;;26.30;95.40;;;;;;5010713;28;20546;-70
2022/10/05 09:05:57;;;;;;;9.47;7.10;;;26.30;94.00;;;;;;5011295;28;20477;-69
2022/10/05 09:08:55;;;;;;;9.00;7.67;;;27.30;92.60;;;;;;5008214;28;20509;-69
2022/10/05 09:11:34;;;;;;;6.60;6.07;;;27.20;92.00;;;;;;5006744;28;20450;-70
2022/10/05 09:14:37;;;;;;;7.97;5.50;;;28.20;90.40;;;;;;5009007;28;20445;-69
2022/10/05 09:17:30;;;;;;;5.37;4.90;;;28.90;85.60;;;;;;5008101;28;20519;-70
2022/10/05 09:20:49;;;;;;;4.17;3.87;;;29.50;81.80;;;;;;5006669;28;20449;-69
2022/10/05 09:23:39;;;;;;;3.57;3.30;;;29.10;76.70;;;;;;4964033;28;20538;-69
2022/10/05 09:26:23;;;;;;;3.50;3.20;;;27.50;80.30;;;;;;5003915;28;20470;-69
2022/10/05 09:29:22;;;;;;;3.87;2.30;;;26.60;81.50;;;;;;5010197;28;20507;-69
2022/10/05 09:32:04;;;;;;;4.23;2.97;;;26.40;85.30;;;;;;5006607;28;20441;-69
2022/10/05 09:34:52;;;;;;;4.80;2.90;;;28.30;81.10;;;;;;5010767;28;20851;-69
2022/10/05 09:37:37;;;;;;;2.67;2.47;;;29.10;73.70;;;;;;5006524;28;20931;-69
2022/10/05 09:40:30;;;;;;;3.60;2.60;;;27.30;76.30;;;;;;5006710;28;20441;-69
2022/10/05 09:43:07;;;;;;;4.67;3.00;;;27.00;78.40;;;;;;5010268;28;22141;-69
2022/10/05 09:46:05;;;;;;;3.90;2.33;;;28.10;75.70;;;;;;5008441;28;20850;-69
2022/10/05 09:48:52;;;;;;;3.03;2.73;;;27.20;76.80;;;;;;5004967;28;20520;-68
2022/10/05 09:52:02;;;;;;;2.80;2.60;;;27.20;79.00;;;;;;5005502;28;20454;-69
2022/10/05 09:55:00;;;;;;;3.13;2.90;;;27.30;77.10;;;;;;5009501;28;20473;-68
2022/10/05 09:57:51;;;;;;;3.43;2.70;;;26.50;80.50;;;;;;5010991;28;20446;-69
2022/10/05 10:00:36;;;;;;;4.17;2.47;;;27.60;80.20;;;;;;5003394;28;20438;-69
2022/10/05 10:03:42;;;;;;;3.70;2.53;;;27.40;78.90;;;;;;5009479;28;20581;-69
2022/10/05 10:06:29;;;;;;;2.77;2.57;;;28.70;76.60;;;;;;5010790;28;20473;-69
2022/10/05 10:09:33;;;;;;;3.10;2.90;;;28.30;76.50;;;;;;5009902;28;20417;-69
2022/10/05 10:12:12;;;;;;;2.37;2.27;;;27.90;78.00;;;;;;5008554;28;20429;-68
2022/10/05 10:15:11;;;;;;;2.57;2.47;;;28.50;76.10;;;;;;5011323;28;20817;-69
2022/10/05 10:17:51;;;;;;;2.23;2.13;;;28.60;74.60;;;;;;5005705;28;20437;-74
2022/10/05 10:20:35;;;;;;;2.40;2.30;;;29.00;74.20;;;;;;5001655;28;20418;-69
2022/10/05 10:23:17;;;;;;;2.37;2.10;;;29.00;73.70;;;;;;5011492;28;20445;-68
2022/10/05 10:25:57;;;;;;;3.37;3.10;;;29.30;70.70;;;;;;5011369;28;20469;-68
2022/10/05 10:28:41;;;;;;;2.70;2.50;;;29.60;68.80;;;;;;5010678;28;20448;-69
2022/10/05 10:31:31;;;;;;;2.13;2.00;;;30.10;69.00;;;;;;5001579;28;20716;-69
2022/10/05 10:34:44;;;;;;;2.43;2.23;;;30.40;68.10;;;;;;5007426;28;20428;-70
2022/10/05 10:37:47;;;;;;;2.10;2.00;;;30.40;64.60;;;;;;5006291;28;20434;-69
2022/10/05 10:40:24;;;;;;;2.50;2.30;;;31.30;61.90;;;;;;5001450;28;20421;-69
2022/10/05 10:43:02;;;;;;;2.57;2.37;;;30.80;60.80;;;;;;5011616;28;20427;-72
2022/10/05 10:45:53;;;;;;;2.70;2.30;;;30.30;64.80;;;;;;5011552;28;20493;-69
2022/10/05 10:48:18;;;;;;;3.13;2.23;;;31.70;60.40;;;;;;5011166;28;20421;-70
2022/10/05 10:51:03;;;;;;;1.90;1.80;;;32.50;59.80;;;;;;5008535;28;20426;-69
2022/10/05 10:53:49;;;;;;;2.40;2.30;;;33.50;57.20;;;;;;5012049;28;20682;-68
2022/10/05 10:56:33;;;;;;;2.43;2.13;;;34.10;54.90;;;;;;5010980;28;20918;-68
2022/10/05 10:59:49;;;;;;;2.60;2.40;;;33.50;54.70;;;;;;5010954;28;20425;-68
2022/10/05 11:02:23;;;;;;;2.20;2.10;;;31.80;56.60;;;;;;4984642;28;20433;-68
2022/10/05 11:05:00;;;;;;;4.80;2.77;;;31.60;58.10;;;;;;5015513;28;20989;-68
2022/10/05 11:07:47;;;;;;;2.70;2.50;;;30.50;58.80;;;;;;5022557;28;20533;-68
2022/10/05 11:10:18;;;;;;;2.70;2.20;;;30.70;59.40;;;;;;5006533;28;20425;-68
2022/10/05 11:12:50;;;;;;;4.43;3.00;;;30.70;59.30;;;;;;5014698;28;20508;-68
2022/10/05 11:15:34;;;;;;;3.20;3.00;;;30.60;60.20;;;;;;5013856;28;20472;-68
2022/10/05 11:18:21;;;;;;;2.90;2.70;;;31.10;59.70;;;;;;5012944;28;20441;-68
2022/10/05 11:21:19;;;;;;;2.57;2.47;;;30.80;60.40;;;;;;5011169;28;20444;-68
2022/10/05 11:24:17;;;;;;;4.90;3.83;;;32.20;58.50;;;;;;5011566;28;20469;-69
2022/10/05 11:26:51;;;;;;;2.50;2.30;;;32.20;57.30;;;;;;5017338;28;20473;-68
2022/10/05 11:29:28;;;;;;;3.33;2.50;;;32.20;56.40;;;;;;5005254;28;20487;-69
2022/10/05 11:32:08;;;;;;;3.03;2.70;;;32.50;56.60;;;;;;5011433;28;20897;-69
2022/10/05 11:34:39;;;;;;;4.33;2.93;;;32.80;56.60;;;;;;5008769;28;21052;-69
2022/10/05 11:37:36;;;;;;;4.50;3.23;;;33.70;55.60;;;;;;5012249;28;20942;-69
2022/10/05 11:40:46;;;;;;;2.47;2.23;;;34.00;55.20;;;;;;5011955;28;20468;-69
2022/10/05 11:43:36;;;;;;;3.30;3.07;;;34.20;54.40;;;;;;5013016;28;20520;-69
2022/10/05 11:46:17;;;;;;;2.93;2.73;;;34.30;53.90;;;;;;5013236;28;20461;-68
2022/10/05 11:49:00;;;;;;;2.80;2.40;;;34.40;53.40;;;;;;5010301;28;20495;-68
2022/10/05 11:51:38;;;;;;;2.80;2.70;;;34.10;54.40;;;;;;5013910;28;20435;-69
2022/10/05 11:54:40;;;;;;;3.40;2.60;;;33.80;53.70;;;;;;5010937;28;20445;-68
2022/10/05 11:57:24;;;;;;;3.10;2.90;;;33.30;54.50;;;;;;5006367;28;20440;-68
2022/10/05 12:00:09;;;;;;;2.80;2.60;;;33.70;53.80;;;;;;5016715;28;20437;-68
2022/10/05 12:02:34;;;;;;;2.77;2.43;;;33.20;54.20;;;;;;5013660;28;20433;-69
2022/10/05 12:05:26;;;;;;;3.50;3.30;;;33.60;54.50;;;;;;5013076;28;20469;-69
2022/10/05 12:08:11;;;;;;;3.60;3.30;;;34.30;53.20;;;;;;5012265;28;20194;-68
2022/10/05 12:11:00;;;;;;;3.73;3.40;;;33.60;53.20;;;;;;5002308;28;20520;-69
2022/10/05 12:13:50;;;;;;;2.50;2.30;;;34.40;53.70;;;;;;5012166;28;20438;-69
2022/10/05 12:16:41;;;;;;;2.90;2.73;;;35.20;51.90;;;;;;5009986;28;20461;-69
2022/10/05 12:19:30;;;;;;;2.60;2.40;;;34.90;51.60;;;;;;5002410;28;20521;-69
2022/10/05 12:22:08;;;;;;;2.67;2.50;;;35.20;52.20;;;;;;5010522;28;20977;-69
2022/10/05 12:24:37;;;;;;;2.87;2.77;;;34.90;52.20;;;;;;5011041;28;20484;-69
2022/10/05 12:27:35;;;;;;;2.47;2.37;;;35.40;51.30;;;;;;5013989;28;20654;-69
2022/10/05 12:30:23;;;;;;;4.23;2.90;;;35.40;51.40;;;;;;4999086;28;20444;-68
2022/10/05 12:33:15;;;;;;;3.10;2.90;;;35.70;51.10;;;;;;5009452;28;20434;-68
2022/10/05 12:35:49;;;;;;;2.50;2.30;;;35.80;51.70;;;;;;5008134;28;20466;-68
2022/10/05 12:38:27;;;;;;;2.10;2.00;;;35.60;51.90;;;;;;5014769;28;20472;-68
2022/10/05 12:41:19;;;;;;;2.13;2.03;;;35.50;50.90;;;;;;5008849;28;20448;-68
2022/10/05 12:44:05;;;;;;;2.37;2.23;;;34.00;52.90;;;;;;5007767;28;20430;-68
2022/10/05 12:47:05;;;;;;;2.37;2.17;;;34.20;52.20;;;;;;5005916;28;20548;-69
2022/10/05 12:49:51;;;;;;;1.60;1.50;;;35.30;50.70;;;;;;5007879;28;20977;-69
2022/10/05 12:52:31;;;;;;;2.20;2.10;;;34.90;48.00;;;;;;5009696;28;20894;-69
2022/10/05 12:55:26;;;;;;;2.83;1.70;;;33.90;48.90;;;;;;5011792;28;20481;-69
2022/10/05 12:58:22;;;;;;;1.90;1.70;;;32.30;49.10;;;;;;4997299;28;20446;-69
2022/10/05 13:01:01;;;;;;;1.87;1.67;;;32.00;49.80;;;;;;5002133;28;20489;-69
2022/10/05 13:03:38;;;;;;;2.53;2.33;;;32.60;49.20;;;;;;5011345;28;20445;-69
2022/10/05 13:06:35;;;;;;;6.10;2.00;;;32.70;48.30;;;;;;5012549;28;20479;-69
2022/10/05 13:09:11;;;;;;;2.67;2.20;;;33.40;48.40;;;;;;5005678;28;20525;-69
2022/10/05 13:11:47;;;;;;;3.40;1.70;;;33.90;47.30;;;;;;5010509;28;20429;-69
2022/10/05 13:14:22;;;;;;;1.80;1.70;;;33.80;46.70;;;;;;5012589;28;20465;-69
2022/10/05 13:16:58;;;;;;;1.77;1.67;;;33.20;46.40;;;;;;5011014;28;20468;-69
2022/10/05 13:19:43;;;;;;;1.90;1.80;;;33.50;46.60;;;;;;5006417;28;20449;-69
2022/10/05 13:22:21;;;;;;;1.90;1.80;;;33.30;46.20;;;;;;5004683;28;20480;-69
2022/10/05 13:25:11;;;;;;;6.37;2.40;;;32.80;46.40;;;;;;5010357;28;20484;-69
2022/10/05 13:27:44;;;;;;;1.67;1.57;;;32.80;46.50;;;;;;5006875;28;20508;-69
2022/10/05 13:30:14;;;;;;;1.97;1.47;;;32.80;46.00;;;;;;5007905;28;20440;-69
2022/10/05 13:32:43;;;;;;;1.97;1.77;;;32.00;45.90;;;;;;5012017;28;20861;-69
2022/10/05 13:35:56;;;;;;;2.30;1.70;;;31.00;47.00;;;;;;5009269;28;20457;-68
2022/10/05 13:39:02;;;;;;;2.07;1.90;;;30.00;47.90;;;;;;4999859;28;20470;-69
2022/10/05 13:41:30;;;;;;;1.40;1.30;;;29.30;48.90;;;;;;5000723;28;20438;-68
2022/10/05 13:44:21;;;;;;;1.43;1.33;;;28.60;49.90;;;;;;5012733;28;20877;-68
2022/10/05 13:46:51;;;;;;;1.70;1.20;;;27.80;50.50;;;;;;5006946;28;20440;-68
2022/10/05 13:49:22;;;;;;;2.57;1.50;;;27.50;51.10;;;;;;5006654;28;20446;-68
2022/10/05 13:52:27;;;;;;;1.40;1.30;;;27.00;52.00;;;;;;5009951;28;20947;-69
2022/10/05 13:54:56;;;;;;;1.60;1.30;;;26.50;52.50;;;;;;5011686;28;20476;-68
2022/10/05 13:57:32;;;;;;;1.70;1.60;;;26.00;53.20;;;;;;5011573;28;20442;-68
2022/10/05 14:00:20;;;;;;;1.83;1.73;;;25.80;54.60;;;;;;5006052;28;20430;-68
2022/10/05 14:02:50;;;;;;;2.00;1.50;;;25.70;55.20;;;;;;5006121;28;20861;-68
2022/10/05 14:05:27;;;;;;;2.80;1.67;;;25.50;54.80;;;;;;5009698;28;20468;-68
2022/10/05 14:08:14;;;;;;;2.50;1.90;;;25.30;55.90;;;;;;5026119;28;20818;-68